Time;durP1;ratioP1;P1;durP2;ratioP2;P2;SDS_P1;SDS_P2;PMS_P1;PMS_P2;Temp;Humidity;BMP_temperature;BMP_pressure;BME280_temperature;BME280_humidity;BME280_pressure;Samples;Min_cycle;Max_cycle;Signal;HPM_P1;HPM_P2
2022/10/05 00:01:44;;;;;;;11.60;9.23;;;16.00;78.20;;;;;;5033540;28;20038;-15
2022/10/05 00:04:22;;;;;;;14.80;10.10;;;16.00;78.40;;;;;;5033889;28;20041;-15
2022/10/05 00:07:07;;;;;;;12.35;9.02;;;16.00;78.40;;;;;;5033448;28;20104;-15
2022/10/05 00:09:33;;;;;;;12.43;9.43;;;16.00;78.40;;;;;;5033422;28;20477;-16
2022/10/05 00:12:11;;;;;;;14.23;11.60;;;16.00;78.40;;;;;;5033574;28;20087;-16
2022/10/05 00:14:39;;;;;;;12.27;9.02;;;16.00;78.30;;;;;;5033472;28;20029;-16
2022/10/05 00:17:05;;;;;;;15.55;10.25;;;16.00;78.30;;;;;;5034093;28;20410;-16
2022/10/05 00:19:37;;;;;;;11.75;9.07;;;16.10;78.30;;;;;;5033316;28;20021;-14
2022/10/05 00:22:13;;;;;;;13.68;10.00;;;16.10;78.20;;;;;;5033531;28;20396;-16
2022/10/05 00:24:39;;;;;;;12.50;8.00;;;16.10;78.20;;;;;;5033576;28;20029;-16
2022/10/05 00:27:19;;;;;;;14.68;9.75;;;16.10;78.20;;;;;;5033238;28;20030;-15
2022/10/05 00:29:47;;;;;;;12.00;9.10;;;16.10;78.30;;;;;;5033114;28;20033;-17
2022/10/05 00:32:13;;;;;;;15.52;10.18;;;16.10;78.40;;;;;;5033058;28;20485;-15
2022/10/05 00:34:40;;;;;;;13.52;9.07;;;16.10;78.70;;;;;;5033275;28;20033;-16
2022/10/05 00:37:06;;;;;;;10.02;7.88;;;16.20;78.80;;;;;;5032922;28;20525;-16
2022/10/05 00:39:35;;;;;;;12.05;9.05;;;16.20;78.40;;;;;;5015481;28;20171;-18
2022/10/05 00:42:07;;;;;;;11.73;9.10;;;16.10;78.50;;;;;;5033386;28;20117;-16
2022/10/05 00:44:38;;;;;;;16.55;12.35;;;16.10;78.70;;;;;;5032939;28;20176;-17
2022/10/05 00:47:46;;;;;;;16.17;13.02;;;16.20;78.70;;;;;;5032675;28;20029;-16
2022/10/05 00:50:50;;;;;;;10.82;9.32;;;16.10;78.90;;;;;;5034674;28;20040;-16
2022/10/05 00:53:27;;;;;;;11.90;8.60;;;16.10;79.00;;;;;;5006203;28;20025;-15
2022/10/05 00:56:17;;;;;;;12.77;8.65;;;16.10;78.90;;;;;;5019436;28;20034;-15
2022/10/05 00:58:55;;;;;;;14.82;9.88;;;16.10;78.70;;;;;;5037159;28;20095;-17
2022/10/05 01:01:36;;;;;;;12.90;8.57;;;16.10;78.90;;;;;;5036899;28;20481;-17
2022/10/05 01:04:20;;;;;;;11.25;8.35;;;16.10;78.90;;;;;;5037201;28;20025;-16
2022/10/05 01:07:07;;;;;;;10.23;7.97;;;16.10;78.80;;;;;;5037026;28;20381;-17
2022/10/05 01:09:45;;;;;;;10.52;8.43;;;16.20;78.50;;;;;;5037142;28;20057;-15
2022/10/05 01:12:52;;;;;;;12.13;8.82;;;16.20;78.60;;;;;;5018859;28;20132;-16
2022/10/05 01:15:53;;;;;;;11.48;8.50;;;16.20;78.60;;;;;;5036705;28;20034;-17
2022/10/05 01:18:33;;;;;;;10.93;8.35;;;16.20;78.50;;;;;;5026321;28;20096;-15
2022/10/05 01:21:21;;;;;;;12.95;9.30;;;16.20;78.50;;;;;;5036651;28;20080;-16
2022/10/05 01:24:28;;;;;;;15.10;11.70;;;16.20;78.60;;;;;;5036566;28;20025;-16
2022/10/05 01:27:13;;;;;;;12.23;9.07;;;16.30;79.10;;;;;;5032227;28;20109;-16
2022/10/05 01:29:48;;;;;;;16.83;11.90;;;16.20;79.00;;;;;;5036994;28;20389;-16
2022/10/05 01:32:22;;;;;;;15.55;11.30;;;16.20;78.60;;;;;;5036332;28;20033;-15
2022/10/05 01:34:51;;;;;;;13.95;11.07;;;16.20;78.70;;;;;;5036556;28;20021;-16
2022/10/05 01:37:58;;;;;;;13.65;10.68;;;16.10;78.70;;;;;;5036852;28;20033;-15
2022/10/05 01:40:48;;;;;;;13.50;9.75;;;16.10;78.70;;;;;;4955985;29;20032;-17
2022/10/05 01:43:41;;;;;;;17.80;13.45;;;16.00;78.80;;;;;;4956092;29;20039;-16
2022/10/05 01:46:18;;;;;;;18.55;12.43;;;16.00;78.70;;;;;;4956375;29;20043;-16
2022/10/05 01:48:59;;;;;;;12.35;9.60;;;15.90;78.80;;;;;;4955887;29;20102;-16
2022/10/05 01:51:42;;;;;;;11.77;9.10;;;15.90;78.90;;;;;;4955811;29;20107;-16
2022/10/05 01:54:41;;;;;;;11.90;9.85;;;15.90;79.10;;;;;;4956543;29;20032;-17
2022/10/05 01:57:46;;;;;;;13.60;8.75;;;15.80;79.00;;;;;;4917347;29;20047;-16
2022/10/05 02:00:16;;;;;;;18.40;13.60;;;15.80;79.00;;;;;;4917319;29;20036;-18
2022/10/05 02:02:57;;;;;;;13.43;9.25;;;15.70;79.10;;;;;;4917496;29;20028;-16
2022/10/05 02:05:37;;;;;;;13.00;10.48;;;15.60;79.20;;;;;;4917974;29;20044;-16
2022/10/05 02:08:13;;;;;;;13.52;9.20;;;15.50;79.40;;;;;;4917550;29;20437;-15
2022/10/05 02:10:48;;;;;;;12.55;9.07;;;15.50;79.40;;;;;;4918094;28;20046;-16
2022/10/05 02:13:21;;;;;;;15.48;10.73;;;15.40;79.90;;;;;;4974854;28;20054;-17
2022/10/05 02:15:53;;;;;;;12.25;8.82;;;15.40;80.40;;;;;;4974852;28;20054;-16
2022/10/05 02:18:29;;;;;;;11.30;8.70;;;15.40;79.90;;;;;;4975307;28;20105;-16
2022/10/05 02:20:58;;;;;;;14.07;9.38;;;15.30;79.90;;;;;;4974518;28;20039;-16
2022/10/05 02:23:30;;;;;;;11.80;9.07;;;15.30;79.90;;;;;;4958414;28;20022;-17
2022/10/05 02:25:57;;;;;;;12.10;8.75;;;15.30;79.80;;;;;;4974712;28;20046;-16
2022/10/05 02:29:03;;;;;;;12.48;8.30;;;15.30;79.90;;;;;;4974540;28;20026;-16
2022/10/05 02:31:44;;;;;;;12.57;9.90;;;15.30;79.90;;;;;;4917101;29;20054;-15
2022/10/05 02:34:28;;;;;;;12.52;9.48;;;15.40;79.80;;;;;;4955119;29;20027;-15
2022/10/05 02:37:28;;;;;;;12.57;9.05;;;15.40;79.80;;;;;;4955672;29;20041;-17
2022/10/05 02:39:53;;;;;;;14.75;9.82;;;15.40;79.70;;;;;;4955500;29;20491;-16
2022/10/05 02:42:47;;;;;;;11.30;8.95;;;15.40;80.10;;;;;;4955176;29;20050;-16
2022/10/05 02:45:29;;;;;;;11.68;8.55;;;15.50;80.00;;;;;;4955003;29;20399;-15
2022/10/05 02:48:05;;;;;;;11.98;8.82;;;15.50;79.90;;;;;;4955429;29;20519;-16
2022/10/05 02:50:43;;;;;;;13.23;9.10;;;15.50;79.70;;;;;;4954840;29;20043;-16
2022/10/05 02:53:36;;;;;;;11.45;8.70;;;15.50;79.80;;;;;;4955249;29;20023;-15
2022/10/05 02:56:08;;;;;;;12.63;8.67;;;15.50;79.60;;;;;;4955030;29;20488;-17
2022/10/05 02:58:48;;;;;;;15.43;9.88;;;15.60;79.50;;;;;;4954704;29;20263;-17
2022/10/05 03:01:20;;;;;;;15.40;12.02;;;15.60;79.50;;;;;;4962962;28;20035;-16
2022/10/05 03:04:00;;;;;;;15.02;11.05;;;15.60;79.50;;;;;;5034940;28;20030;-15
2022/10/05 03:06:31;;;;;;;14.35;10.10;;;15.60;79.60;;;;;;5034611;28;20117;-16
2022/10/05 03:09:02;;;;;;;11.82;7.70;;;15.50;79.60;;;;;;5034433;28;20025;-15
2022/10/05 03:11:37;;;;;;;13.70;10.35;;;15.50;79.70;;;;;;5034737;28;20045;-16
2022/10/05 03:14:25;;;;;;;11.50;9.07;;;15.50;79.90;;;;;;5034396;28;20025;-15
2022/10/05 03:16:54;;;;;;;13.98;9.70;;;15.60;79.80;;;;;;5034437;28;20018;-16
2022/10/05 03:19:44;;;;;;;15.93;10.18;;;15.60;80.00;;;;;;5034645;28;20032;-15
2022/10/05 03:22:18;;;;;;;12.52;9.70;;;15.60;80.00;;;;;;5034619;28;20030;-15
2022/10/05 03:24:58;;;;;;;14.55;9.50;;;15.60;80.10;;;;;;5034452;28;20592;-15
2022/10/05 03:27:44;;;;;;;14.15;10.10;;;15.60;80.40;;;;;;5034905;28;20122;-16
2022/10/05 03:30:45;;;;;;;11.23;8.00;;;15.70;80.10;;;;;;5034177;28;20052;-17
2022/10/05 03:33:27;;;;;;;11.68;9.10;;;15.70;79.80;;;;;;5034105;28;20033;-16
2022/10/05 03:36:10;;;;;;;14.00;8.07;;;15.70;79.70;;;;;;5034113;28;20029;-16
2022/10/05 03:39:01;;;;;;;10.15;8.13;;;15.70;79.70;;;;;;5034219;28;20017;-15
2022/10/05 03:41:41;;;;;;;13.23;8.93;;;15.70;79.60;;;;;;5034498;28;20044;-15
2022/10/05 03:44:16;;;;;;;11.32;8.63;;;15.80;79.40;;;;;;5034247;28;20412;-17
2022/10/05 03:47:12;;;;;;;13.18;8.73;;;15.80;79.60;;;;;;5034540;28;20028;-16
2022/10/05 03:49:56;;;;;;;13.95;8.82;;;15.90;79.30;;;;;;5033871;28;20037;-15
2022/10/05 03:52:56;;;;;;;15.40;11.40;;;15.90;79.40;;;;;;5034674;28;20033;-16
2022/10/05 03:55:39;;;;;;;10.98;7.95;;;15.90;79.40;;;;;;5033767;28;20030;-15
2022/10/05 03:58:13;;;;;;;12.90;8.85;;;15.90;79.50;;;;;;5033927;28;20432;-16
2022/10/05 04:00:40;;;;;;;13.95;9.02;;;15.90;79.40;;;;;;5033704;28;20112;-15
2022/10/05 04:03:38;;;;;;;12.35;9.27;;;15.90;79.50;;;;;;5033316;28;20028;-15
2022/10/05 04:06:12;;;;;;;12.98;9.48;;;15.90;79.30;;;;;;5033596;28;20509;-15
2022/10/05 04:08:47;;;;;;;11.93;9.10;;;15.80;79.40;;;;;;5033581;28;20086;-16
2022/10/05 04:11:22;;;;;;;10.75;8.68;;;15.80;79.40;;;;;;5033365;28;20080;-16
2022/10/05 04:14:21;;;;;;;12.07;9.15;;;15.90;79.50;;;;;;5034292;28;20453;-15
2022/10/05 04:16:57;;;;;;;13.35;9.95;;;15.90;79.80;;;;;;5022630;28;20025;-17
2022/10/05 04:19:51;;;;;;;14.65;10.27;;;15.80;80.20;;;;;;5033278;28;20124;-15
2022/10/05 04:22:27;;;;;;;16.15;9.32;;;15.80;80.50;;;;;;5033988;28;20057;-15
2022/10/05 04:25:30;;;;;;;11.05;8.13;;;15.80;80.50;;;;;;5032313;28;20394;-15
2022/10/05 04:28:29;;;;;;;13.18;10.10;;;15.80;80.30;;;;;;4953613;29;20041;-16
2022/10/05 04:30:55;;;;;;;13.90;10.18;;;15.80;80.10;;;;;;4952964;29;20047;-15
2022/10/05 04:33:21;;;;;;;12.38;9.05;;;15.80;80.40;;;;;;4952997;29;20459;-14
2022/10/05 04:35:52;;;;;;;10.77;8.23;;;15.90;80.20;;;;;;4953308;29;20035;-15
2022/10/05 04:38:47;;;;;;;12.48;8.80;;;15.80;80.00;;;;;;4953087;29;20535;-16
2022/10/05 04:41:27;;;;;;;9.90;8.00;;;15.90;79.80;;;;;;4953352;29;20027;-15
2022/10/05 04:44:15;;;;;;;11.85;8.20;;;15.90;79.60;;;;;;4953081;29;20031;-16
2022/10/05 04:47:13;;;;;;;10.73;8.32;;;15.90;79.50;;;;;;4952907;29;20035;-16
2022/10/05 04:50:00;;;;;;;10.68;7.47;;;16.00;79.30;;;;;;4953263;29;20136;-15
2022/10/05 04:52:44;;;;;;;11.07;8.40;;;16.00;79.30;;;;;;4952921;29;20447;-15
2022/10/05 04:55:47;;;;;;;12.00;8.27;;;16.00;79.20;;;;;;4952679;29;20039;-16
2022/10/05 04:58:34;;;;;;;15.93;10.43;;;16.00;79.20;;;;;;4953112;29;20042;-18
2022/10/05 05:01:24;;;;;;;13.30;8.73;;;16.00;79.40;;;;;;4952730;29;20399;-16
2022/10/05 05:04:08;;;;;;;11.73;8.27;;;16.00;79.30;;;;;;5004905;28;20029;-16
2022/10/05 05:07:03;;;;;;;11.77;8.32;;;16.00;79.30;;;;;;5033478;28;20032;-16
2022/10/05 05:09:55;;;;;;;10.25;7.60;;;16.00;79.30;;;;;;5022630;28;20036;-15
2022/10/05 05:12:56;;;;;;;11.18;8.07;;;16.00;79.30;;;;;;5032727;28;20050;-15
2022/10/05 05:15:36;;;;;;;12.70;9.30;;;15.90;79.30;;;;;;4965685;28;20044;-15
2022/10/05 05:18:32;;;;;;;12.25;8.77;;;16.00;79.40;;;;;;5033040;28;20026;-16
2022/10/05 05:21:36;;;;;;;11.23;8.45;;;16.00;79.30;;;;;;5032559;28;20028;-16
2022/10/05 05:24:22;;;;;;;13.80;9.00;;;16.00;79.30;;;;;;5032713;28;20044;-16
2022/10/05 05:27:13;;;;;;;12.27;8.77;;;16.00;79.30;;;;;;5032824;28;20036;-17
2022/10/05 05:30:03;;;;;;;11.63;8.50;;;16.00;79.30;;;;;;5032965;28;20369;-16
2022/10/05 05:32:50;;;;;;;15.80;11.50;;;16.00;79.40;;;;;;5032851;28;20028;-17
2022/10/05 05:35:29;;;;;;;12.82;8.35;;;16.00;79.50;;;;;;5032631;28;20021;-16
2022/10/05 05:38:13;;;;;;;12.15;8.38;;;16.00;79.40;;;;;;5036925;28;20025;-16
2022/10/05 05:40:42;;;;;;;;;;;16.00;79.40;;;;;;5037309;28;20013;-15
2022/10/05 05:43:45;;;;;;;11.82;7.90;;;16.10;79.80;;;;;;5036028;28;20004;-17
2022/10/05 05:46:21;;;;;;;16.25;10.52;;;16.10;79.50;;;;;;4956578;29;20035;-15
2022/10/05 05:48:49;;;;;;;14.73;9.80;;;16.10;79.50;;;;;;4956051;29;20050;-20
2022/10/05 05:51:34;;;;;;;18.10;10.10;;;16.10;79.60;;;;;;4955860;29;20046;-15
2022/10/05 05:54:14;;;;;;;17.08;11.63;;;16.20;79.50;;;;;;4955949;29;20038;-15
2022/10/05 05:56:50;;;;;;;12.43;8.40;;;16.20;79.40;;;;;;4955944;29;20118;-15
2022/10/05 05:59:19;;;;;;;12.10;9.30;;;16.20;79.40;;;;;;4956336;29;20115;-15
2022/10/05 06:02:26;;;;;;;17.05;11.20;;;16.20;79.40;;;;;;4956327;29;20468;-16
2022/10/05 06:05:00;;;;;;;13.80;10.32;;;16.20;79.30;;;;;;4937174;29;20557;-15
2022/10/05 06:07:30;;;;;;;12.90;9.55;;;16.30;79.30;;;;;;4936471;29;20028;-16
2022/10/05 06:10:16;;;;;;;12.57;8.77;;;16.30;79.20;;;;;;4936399;29;20558;-15
2022/10/05 06:12:47;;;;;;;20.33;10.90;;;16.30;79.20;;;;;;4936181;29;20149;-16
2022/10/05 06:15:39;;;;;;;11.50;8.65;;;16.40;79.10;;;;;;4936392;29;20027;-16
2022/10/05 06:18:14;;;;;;;11.43;7.88;;;16.50;78.90;;;;;;4936458;29;20059;-16
2022/10/05 06:21:13;;;;;;;14.35;8.88;;;16.60;78.80;;;;;;4936273;29;20512;-15
2022/10/05 06:24:03;;;;;;;12.13;8.35;;;16.70;78.60;;;;;;4977557;28;20125;-16
2022/10/05 06:26:58;;;;;;;13.93;10.27;;;16.80;78.50;;;;;;4994088;28;20033;-18
2022/10/05 06:29:38;;;;;;;11.90;9.20;;;16.90;78.50;;;;;;4987084;28;20030;-17
2022/10/05 06:32:25;;;;;;;11.43;7.93;;;16.90;78.40;;;;;;4994259;28;20053;-17
2022/10/05 06:35:11;;;;;;;12.85;8.02;;;17.00;78.10;;;;;;5002453;28;20041;-15
2022/10/05 06:37:55;;;;;;;15.15;11.52;;;17.10;78.00;;;;;;5035563;28;20049;-15
2022/10/05 06:40:51;;;;;;;13.45;9.45;;;17.10;77.90;;;;;;5035746;28;20024;-15
2022/10/05 06:43:56;;;;;;;15.18;9.75;;;17.20;77.80;;;;;;5035144;28;20064;-15
2022/10/05 06:46:31;;;;;;;11.02;7.95;;;17.30;77.70;;;;;;5035100;28;20055;-16
2022/10/05 06:49:03;;;;;;;16.65;11.02;;;17.40;77.50;;;;;;5034156;28;20120;-15
2022/10/05 06:51:55;;;;;;;13.88;8.85;;;17.40;77.30;;;;;;5035513;28;20045;-15
2022/10/05 06:54:39;;;;;;;12.00;8.60;;;17.40;77.30;;;;;;5035168;28;20032;-16
2022/10/05 06:57:20;;;;;;;;;;;17.50;77.20;;;;;;5036006;28;20083;-15
2022/10/05 07:00:14;;;;;;;9.90;7.50;;;17.60;77.50;;;;;;5034773;28;19905;-15
2022/10/05 07:02:39;;;;;;;17.30;11.57;;;17.70;77.00;;;;;;5034656;28;20469;-15
2022/10/05 07:05:20;;;;;;;11.77;8.90;;;17.80;76.60;;;;;;5034447;28;20083;-15
2022/10/05 07:08:05;;;;;;;12.15;8.30;;;17.90;76.40;;;;;;5034979;28;20041;-15
2022/10/05 07:10:40;;;;;;;12.43;9.38;;;18.00;76.20;;;;;;5034902;28;20112;-15
2022/10/05 07:13:06;;;;;;;12.25;8.40;;;18.00;76.20;;;;;;5033988;28;20099;-15
2022/10/05 07:16:00;;;;;;;10.05;8.15;;;18.10;76.10;;;;;;5034449;28;20026;-15
2022/10/05 07:18:32;;;;;;;10.23;7.55;;;18.20;76.00;;;;;;5034651;28;20033;-16
2022/10/05 07:21:03;;;;;;;16.45;10.07;;;18.30;75.80;;;;;;5034090;28;20121;-14
2022/10/05 07:23:54;;;;;;;11.18;7.95;;;18.40;75.70;;;;;;5034323;28;20038;-15
2022/10/05 07:26:28;;;;;;;11.55;7.80;;;18.40;75.70;;;;;;5034598;28;20026;-15
2022/10/05 07:29:06;;;;;;;15.18;10.55;;;18.50;75.50;;;;;;5034021;28;20029;-17
2022/10/05 07:31:57;;;;;;;11.85;8.63;;;18.60;75.00;;;;;;5034330;28;20104;-16
2022/10/05 07:34:26;;;;;;;14.23;8.38;;;18.60;74.90;;;;;;5034212;28;20040;-15
2022/10/05 07:40:12;;;;;;;11.48;7.63;;;18.60;74.90;;;;;;5034397;28;20048;-14
2022/10/05 07:42:58;;;;;;;10.35;7.35;;;18.70;75.00;;;;;;5034015;28;20029;-15
2022/10/05 07:45:50;;;;;;;13.07;8.15;;;18.80;75.00;;;;;;5034001;28;20034;-15
2022/10/05 07:48:28;;;;;;;12.52;7.53;;;18.90;74.90;;;;;;5034117;28;20042;-16
2022/10/05 07:51:20;;;;;;;10.95;7.22;;;18.90;74.60;;;;;;5033849;28;20043;-15
2022/10/05 07:54:04;;;;;;;10.75;7.30;;;18.90;74.50;;;;;;5034255;28;20499;-15
2022/10/05 07:56:40;;;;;;;9.93;7.10;;;19.00;74.40;;;;;;5033721;28;20037;-15
2022/10/05 07:59:15;;;;;;;14.07;8.25;;;19.10;74.10;;;;;;5033357;28;20381;-16
2022/10/05 08:01:47;;;;;;;11.18;7.93;;;19.20;73.60;;;;;;5034015;28;20095;-15
2022/10/05 08:04:30;;;;;;;12.85;9.20;;;19.20;73.20;;;;;;5033755;28;20022;-17
2022/10/05 08:07:13;;;;;;;13.15;8.23;;;19.30;73.20;;;;;;5033411;28;20386;-16
2022/10/05 08:10:24;;;;;;;11.45;7.40;;;19.30;73.00;;;;;;5033810;28;20025;-15
2022/10/05 08:13:00;;;;;;;13.68;8.38;;;19.30;72.40;;;;;;4985405;28;20103;-15
2022/10/05 08:15:39;;;;;;;12.75;8.90;;;19.30;72.50;;;;;;5013782;28;20018;-16
2022/10/05 08:18:18;;;;;;;10.48;7.32;;;19.40;72.80;;;;;;5013630;28;20112;-15
2022/10/05 08:20:52;;;;;;;11.52;7.68;;;19.40;72.60;;;;;;5013978;28;20041;-16
2022/10/05 08:23:22;;;;;;;;;;;19.40;72.60;;;;;;5014072;28;20516;-15
2022/10/05 08:26:05;;;;;;;8.93;7.18;;;19.50;72.20;;;;;;5013637;28;20029;-15
2022/10/05 08:28:36;;;;;;;12.25;7.82;;;19.50;72.10;;;;;;5013888;28;20026;-15
2022/10/05 08:31:19;;;;;;;10.45;7.20;;;19.70;72.10;;;;;;5013538;28;20038;-15
2022/10/05 08:34:15;;;;;;;12.10;8.35;;;19.80;72.10;;;;;;5013650;28;20033;-15
2022/10/05 08:37:11;;;;;;;11.52;7.13;;;19.80;71.80;;;;;;5013793;28;20057;-15
2022/10/05 08:39:48;;;;;;;12.25;7.72;;;19.90;71.50;;;;;;5005855;28;20034;-15
2022/10/05 08:42:35;;;;;;;12.90;8.10;;;19.90;71.10;;;;;;5013673;28;20482;-15
2022/10/05 08:45:26;;;;;;;11.60;8.02;;;19.90;71.00;;;;;;5013345;28;20025;-15
2022/10/05 08:48:27;;;;;;;10.02;7.40;;;19.90;70.60;;;;;;5013276;28;20093;-15
2022/10/05 08:51:08;;;;;;;10.75;7.53;;;19.90;69.60;;;;;;5013117;28;20030;-16
2022/10/05 08:53:52;;;;;;;14.00;7.70;;;19.90;70.60;;;;;;5013585;28;20037;-15
2022/10/05 08:56:41;;;;;;;14.88;8.73;;;19.90;70.70;;;;;;5013715;28;20057;-17
2022/10/05 08:59:19;;;;;;;11.25;6.82;;;20.00;70.00;;;;;;5013007;28;20034;-16
2022/10/05 09:01:48;;;;;;;12.73;7.40;;;20.00;70.20;;;;;;5013193;28;20480;-15
2022/10/05 09:04:33;;;;;;;10.10;7.13;;;19.90;70.40;;;;;;5013366;28;20026;-16
2022/10/05 09:06:58;;;;;;;12.32;7.18;;;20.00;70.80;;;;;;5012930;28;20394;-16
2022/10/05 09:09:42;;;;;;;10.13;7.18;;;20.00;70.00;;;;;;5013114;28;20497;-15
2022/10/05 09:12:17;;;;;;;;;;;20.20;69.60;;;;;;5024694;28;20053;-16
2022/10/05 09:15:01;;;;;;;15.27;7.72;;;20.30;70.00;;;;;;5036943;28;19912;-15
2022/10/05 09:17:57;;;;;;;10.82;8.18;;;20.50;69.50;;;;;;5037462;28;20037;-16
2022/10/05 09:20:54;;;;;;;13.80;8.32;;;20.70;68.80;;;;;;5037287;28;20541;-15
2022/10/05 09:23:37;;;;;;;12.80;7.55;;;21.00;67.80;;;;;;5028965;28;20042;-16
2022/10/05 09:26:10;;;;;;;10.57;7.10;;;21.30;67.10;;;;;;5036967;28;20034;-15
2022/10/05 09:29:07;;;;;;;10.80;7.45;;;21.50;66.90;;;;;;5037062;28;20029;-16
2022/10/05 09:31:51;;;;;;;11.02;7.53;;;21.90;65.90;;;;;;5036975;28;20508;-15
2022/10/05 09:34:26;;;;;;;11.43;7.28;;;22.20;64.70;;;;;;5036482;28;20424;-14
2022/10/05 09:37:10;;;;;;;12.63;7.25;;;22.40;65.50;;;;;;5036826;28;20021;-14
2022/10/05 09:39:56;;;;;;;10.68;6.63;;;22.70;63.90;;;;;;5036340;28;20117;-14
2022/10/05 09:42:41;;;;;;;12.95;6.45;;;23.10;63.80;;;;;;5036241;28;20029;-14
2022/10/05 09:45:44;;;;;;;9.90;6.93;;;23.40;62.80;;;;;;5036002;28;20064;-14
2022/10/05 09:48:48;;;;;;;13.73;7.22;;;23.70;61.10;;;;;;5036103;28;20036;-14
2022/10/05 09:51:35;;;;;;;14.18;7.90;;;24.10;59.90;;;;;;5036514;28;20030;-14
2022/10/05 09:54:41;;;;;;;9.68;6.10;;;24.30;60.30;;;;;;5036706;28;20026;-14
2022/10/05 09:57:46;;;;;;;10.88;6.80;;;24.60;59.10;;;;;;5035825;28;20489;-15
2022/10/05 10:00:26;;;;;;;12.07;6.68;;;25.00;58.50;;;;;;5035987;28;20029;-15
2022/10/05 10:03:03;;;;;;;9.88;6.07;;;25.30;56.40;;;;;;5036555;28;20028;-16
2022/10/05 10:05:55;;;;;;;8.00;5.13;;;25.50;57.10;;;;;;5035875;28;20069;-15
2022/10/05 10:08:56;;;;;;;9.40;5.68;;;25.70;55.10;;;;;;5035826;28;20029;-15
2022/10/05 10:11:50;;;;;;;11.23;6.38;;;25.80;55.10;;;;;;5035496;28;20025;-15
2022/10/05 10:14:52;;;;;;;6.60;4.57;;;26.00;54.50;;;;;;5035947;28;20029;-15
2022/10/05 10:17:54;;;;;;;8.88;5.32;;;26.40;55.80;;;;;;5036019;28;20547;-16
2022/10/05 10:20:29;;;;;;;7.40;5.43;;;26.80;54.00;;;;;;5035897;28;20057;-15
2022/10/05 10:23:04;;;;;;;8.40;5.15;;;26.90;54.50;;;;;;5034297;28;20080;-15
2022/10/05 10:25:49;;;;;;;7.70;4.55;;;27.00;54.50;;;;;;5035953;28;20037;-14
2022/10/05 10:28:39;;;;;;;8.32;5.35;;;27.00;54.50;;;;;;5035663;28;20139;-15
2022/10/05 10:31:34;;;;;;;7.88;5.43;;;27.10;53.90;;;;;;5035149;28;20045;-14
2022/10/05 10:34:26;;;;;;;9.48;5.72;;;27.00;51.40;;;;;;5035612;28;20033;-15
2022/10/05 10:37:21;;;;;;;8.80;5.15;;;27.00;51.10;;;;;;5035093;28;20099;-15
2022/10/05 10:39:58;;;;;;;6.43;4.55;;;26.90;53.00;;;;;;5004962;28;20389;-15
2022/10/05 10:42:46;;;;;;;8.55;5.50;;;26.70;53.10;;;;;;5035465;28;20044;-15
2022/10/05 10:45:34;;;;;;;6.75;4.38;;;26.70;53.40;;;;;;5035268;28;20075;-15
2022/10/05 10:48:25;;;;;;;7.47;4.95;;;26.70;52.20;;;;;;5035397;28;20033;-15
2022/10/05 10:51:06;;;;;;;7.22;4.35;;;26.60;53.80;;;;;;5034783;28;20037;-15
2022/10/05 10:53:40;;;;;;;6.47;4.57;;;26.80;54.10;;;;;;5034877;28;20022;-14
2022/10/05 10:56:29;;;;;;;7.88;5.45;;;27.10;53.90;;;;;;5034908;28;20032;-15
2022/10/05 10:59:33;;;;;;;8.93;6.07;;;27.40;52.10;;;;;;5034668;28;20068;-14
2022/10/05 11:02:32;;;;;;;7.47;4.65;;;27.60;49.50;;;;;;5035409;28;20017;-15
2022/10/05 11:05:22;;;;;;;6.50;4.32;;;27.60;51.10;;;;;;5034470;28;20397;-15
2022/10/05 11:08:05;;;;;;;8.10;4.20;;;27.60;51.30;;;;;;5034947;28;20033;-15
2022/10/05 11:11:12;;;;;;;7.70;4.10;;;27.80;50.20;;;;;;5034539;28;20393;-15
2022/10/05 11:14:04;;;;;;;5.00;3.63;;;27.80;51.20;;;;;;5034482;28;20129;-15
2022/10/05 11:17:07;;;;;;;5.47;2.80;;;27.80;51.60;;;;;;5034578;28;20025;-15
2022/10/05 11:19:59;;;;;;;7.82;2.88;;;27.90;50.00;;;;;;5034375;28;20026;-15
2022/10/05 11:22:50;;;;;;;6.60;3.00;;;27.90;49.60;;;;;;5031119;28;20128;-15
2022/10/05 11:25:22;;;;;;;7.82;3.70;;;27.80;49.30;;;;;;5034277;28;20026;-15
2022/10/05 11:28:02;;;;;;;8.23;3.40;;;27.60;49.60;;;;;;5034269;28;20057;-15
2022/10/05 11:31:05;;;;;;;5.00;3.08;;;27.40;50.10;;;;;;5034505;28;20072;-15
2022/10/05 11:33:58;;;;;;;6.38;3.83;;;27.10;50.70;;;;;;5034174;28;20028;-15
2022/10/05 11:36:52;;;;;;;6.57;3.50;;;27.00;51.20;;;;;;5034776;28;20040;-16
2022/10/05 11:39:35;;;;;;;6.43;3.28;;;26.70;52.00;;;;;;5033963;28;20071;-15
2022/10/05 11:42:13;;;;;;;5.63;2.92;;;26.40;52.70;;;;;;5034372;28;20033;-15
2022/10/05 11:45:28;;;;;;;4.63;2.80;;;26.20;53.20;;;;;;5034540;28;20436;-16
2022/10/05 11:48:22;;;;;;;6.40;3.00;;;26.10;53.70;;;;;;4954191;29;20483;-16
2022/10/05 11:51:26;;;;;;;4.22;2.58;;;26.20;53.90;;;;;;4953487;29;20085;-16
2022/10/05 11:54:16;;;;;;;4.90;2.80;;;26.40;52.00;;;;;;4954114;29;20062;-15
2022/10/05 11:57:09;;;;;;;4.05;2.60;;;26.70;52.40;;;;;;4953837;29;20518;-15
2022/10/05 11:59:57;;;;;;;5.28;2.83;;;26.90;52.30;;;;;;4953693;29;20543;-15
2022/10/05 12:02:23;;;;;;;6.95;3.08;;;26.90;51.80;;;;;;4953676;29;20042;-15
2022/10/05 12:05:09;;;;;;;6.38;3.17;;;27.10;50.60;;;;;;4953212;29;20035;-16
2022/10/05 12:08:16;;;;;;;6.20;3.33;;;27.30;49.30;;;;;;4954152;29;20031;-15
2022/10/05 12:10:58;;;;;;;5.15;2.80;;;27.40;49.10;;;;;;4915392;29;20084;-15
2022/10/05 12:13:46;;;;;;;4.88;3.10;;;27.40;48.70;;;;;;4915034;29;20055;-15
2022/10/05 12:16:42;;;;;;;6.53;3.67;;;27.40;48.80;;;;;;4916071;29;20058;-15
2022/10/05 12:19:43;;;;;;;5.32;3.40;;;27.40;49.30;;;;;;4954456;28;20597;-16
2022/10/05 12:22:24;;;;;;;5.43;3.13;;;27.30;49.60;;;;;;4956555;28;20049;-16
2022/10/05 12:25:22;;;;;;;4.65;2.67;;;27.20;49.80;;;;;;4972512;28;20027;-15
2022/10/05 12:27:57;;;;;;;5.05;2.83;;;27.20;50.20;;;;;;4964889;28;20034;-15
2022/10/05 12:30:50;;;;;;;3.42;2.60;;;27.40;50.20;;;;;;4973017;28;20062;-16
2022/10/05 12:33:19;;;;;;;5.20;2.85;;;27.50;50.40;;;;;;4972445;28;20050;-15
2022/10/05 12:35:54;;;;;;;6.85;3.72;;;27.50;50.00;;;;;;4972448;28;20065;-15
2022/10/05 12:38:40;;;;;;;6.47;3.20;;;27.40;49.70;;;;;;4972437;28;20045;-14
2022/10/05 12:41:20;;;;;;;3.88;2.88;;;27.30;50.30;;;;;;4994225;28;20120;-15
2022/10/05 12:44:10;;;;;;;5.78;3.30;;;27.10;50.40;;;;;;5033417;28;20033;-15
2022/10/05 12:46:57;;;;;;;5.43;3.47;;;27.00;50.70;;;;;;5032623;28;20113;-15
2022/10/05 12:49:44;;;;;;;6.22;2.90;;;26.90;51.70;;;;;;5015368;28;20062;-15
2022/10/05 12:52:42;;;;;;;6.15;3.50;;;26.80;52.00;;;;;;5032991;28;20501;-15
2022/10/05 12:55:28;;;;;;;7.75;3.50;;;26.70;51.90;;;;;;5032756;28;20025;-15
2022/10/05 12:58:10;;;;;;;5.13;2.95;;;26.60;52.00;;;;;;5033018;28;20026;-16
2022/10/05 13:00:48;;;;;;;5.68;3.05;;;26.40;52.40;;;;;;5033079;28;20026;-16
2022/10/05 13:03:33;;;;;;;4.18;3.00;;;26.20;53.30;;;;;;5033148;28;20371;-15
2022/10/05 13:06:26;;;;;;;5.85;3.15;;;26.20;53.20;;;;;;5033218;28;20045;-16
2022/10/05 13:09:13;;;;;;;;;;;26.20;52.60;;;;;;5033034;28;20108;-15
2022/10/05 13:11:55;;;;;;;3.88;2.90;;;26.20;52.80;;;;;;5032681;28;19988;-15
2022/10/05 13:14:42;;;;;;;4.18;2.95;;;26.20;52.70;;;;;;5032813;28;20025;-15
2022/10/05 13:17:32;;;;;;;7.30;3.22;;;26.20;53.40;;;;;;5032585;28;20100;-15
2022/10/05 13:20:16;;;;;;;4.55;2.60;;;26.30;52.90;;;;;;5032484;28;20428;-16
2022/10/05 13:22:51;;;;;;;5.05;2.47;;;26.30;53.00;;;;;;5032745;28;20117;-15
2022/10/05 13:25:31;;;;;;;7.03;3.20;;;26.40;53.10;;;;;;5032678;28;20032;-15
2022/10/05 13:28:18;;;;;;;4.28;2.72;;;26.30;52.80;;;;;;5032509;28;20501;-15
2022/10/05 13:31:02;;;;;;;3.25;2.58;;;26.20;52.40;;;;;;5032317;28;20033;-15
2022/10/05 13:33:47;;;;;;;3.78;2.78;;;26.30;53.00;;;;;;5032877;28;20021;-15
2022/10/05 13:36:30;;;;;;;4.13;3.10;;;26.30;52.60;;;;;;5032329;28;20501;-15
2022/10/05 13:39:16;;;;;;;9.80;3.70;;;26.20;52.40;;;;;;5032199;28;20079;-15
2022/10/05 13:41:48;;;;;;;6.47;3.35;;;26.20;51.90;;;;;;5032267;28;20366;-15
2022/10/05 13:44:17;;;;;;;5.10;3.03;;;26.10;52.50;;;;;;5032273;28;20432;-15
2022/10/05 13:46:54;;;;;;;3.90;2.92;;;26.00;52.40;;;;;;5032557;28;20040;-15
2022/10/05 13:50:09;;;;;;;6.30;3.17;;;25.90;52.90;;;;;;5032505;28;20040;-15
2022/10/05 13:53:06;;;;;;;2.95;2.40;;;25.90;52.50;;;;;;5013113;28;20037;-15
2022/10/05 13:56:05;;;;;;;4.45;2.60;;;25.90;52.50;;;;;;5032490;28;20485;-15
2022/10/05 13:58:58;;;;;;;5.75;2.70;;;26.00;51.60;;;;;;5036103;28;20075;-15
2022/10/05 14:01:27;;;;;;;5.00;2.50;;;26.20;51.60;;;;;;5036503;28;20060;-15
2022/10/05 14:04:19;;;;;;;4.40;2.53;;;26.40;52.00;;;;;;5036137;28;20257;-15
2022/10/05 14:06:46;;;;;;;5.25;2.90;;;26.60;51.40;;;;;;5036118;28;20463;-15
2022/10/05 14:09:21;;;;;;;5.40;2.50;;;26.70;51.00;;;;;;5035971;28;20029;-14
2022/10/05 14:12:01;;;;;;;3.67;2.60;;;26.90;50.10;;;;;;5036006;28;20045;-15